Time;durP1;ratioP1;P1;durP2;ratioP2;P2;SDS_P1;SDS_P2;PMS_P1;PMS_P2;Temp;Humidity;BMP_temperature;BMP_pressure;BME280_temperature;BME280_humidity;BME280_pressure;Samples;Min_cycle;Max_cycle;Signal;HPM_P1;HPM_P2
2021/05/07 00:01:20;;;;;;;7.28;2.75;;;9.60;99.90;;;;;;1899251;74;21094;-74
2021/05/07 00:03:47;;;;;;;11.10;2.72;;;9.60;99.90;;;;;;1897968;74;21163;-74
2021/05/07 00:06:15;;;;;;;7.83;2.27;;;9.60;99.90;;;;;;1898629;74;21614;-74
2021/05/07 00:08:43;;;;;;;7.67;2.50;;;9.60;99.90;;;;;;1899343;74;22078;-71
2021/05/07 00:11:20;;;;;;;5.90;2.83;;;9.60;99.90;;;;;;1895728;74;21211;-74
2021/05/07 00:13:47;;;;;;;7.25;2.72;;;9.60;99.90;;;;;;1894486;75;21115;-74
2021/05/07 00:16:16;;;;;;;10.15;2.50;;;9.60;99.90;;;;;;1897474;74;21594;-73
2021/05/07 00:18:43;;;;;;;8.55;2.80;;;9.60;99.90;;;;;;1898168;74;21128;-74
2021/05/07 00:21:11;;;;;;;7.40;2.58;;;9.60;99.90;;;;;;1899693;74;21615;-73
2021/05/07 00:23:39;;;;;;;7.45;2.30;;;9.60;99.90;;;;;;1900613;75;21171;-75
2021/05/07 00:26:06;;;;;;;6.65;2.47;;;9.60;99.90;;;;;;1898468;75;21038;-74
2021/05/07 00:28:35;;;;;;;6.12;2.50;;;9.70;99.90;;;;;;1896595;75;21058;-74
2021/05/07 00:31:03;;;;;;;6.95;2.27;;;9.60;99.90;;;;;;1901125;74;22321;-71
2021/05/07 00:33:31;;;;;;;8.05;2.70;;;9.60;99.90;;;;;;1896187;75;21046;-73
2021/05/07 00:35:58;;;;;;;5.80;2.17;;;9.60;99.90;;;;;;1893037;74;21178;-73
2021/05/07 00:38:26;;;;;;;8.28;2.72;;;9.50;99.90;;;;;;1900200;74;21609;-73
2021/05/07 00:40:53;;;;;;;5.65;2.52;;;9.50;99.90;;;;;;1895737;75;21094;-73
2021/05/07 00:43:21;;;;;;;14.85;3.42;;;9.50;99.90;;;;;;1898128;74;21042;-73
2021/05/07 00:45:50;;;;;;;5.78;2.58;;;9.50;99.90;;;;;;1897673;74;21463;-74
2021/05/07 00:48:18;;;;;;;7.87;2.55;;;9.50;99.90;;;;;;1896787;74;21171;-74
2021/05/07 00:50:48;;;;;;;8.75;2.98;;;9.40;99.90;;;;;;1901082;74;21138;-74
2021/05/07 00:53:18;;;;;;;5.40;2.62;;;9.40;99.90;;;;;;1895925;75;21137;-73
2021/05/07 00:55:45;;;;;;;8.95;2.80;;;9.40;99.90;;;;;;1894063;75;21050;-72
2021/05/07 00:58:13;;;;;;;7.72;3.12;;;9.30;99.90;;;;;;1896544;75;21569;-75
2021/05/07 01:00:40;;;;;;;8.08;2.87;;;9.30;99.90;;;;;;1898003;75;21195;-74
2021/05/07 01:03:08;;;;;;;8.40;2.67;;;9.20;99.90;;;;;;1893954;74;21078;-74
2021/05/07 01:05:36;;;;;;;6.25;2.60;;;9.20;99.90;;;;;;1897200;74;21101;-74
2021/05/07 01:08:03;;;;;;;7.67;3.05;;;9.20;99.90;;;;;;1897360;74;21066;-74
2021/05/07 01:10:31;;;;;;;10.18;2.60;;;9.20;99.90;;;;;;1899142;75;21680;-74
2021/05/07 01:12:58;;;;;;;7.50;2.87;;;9.20;99.90;;;;;;1897964;74;21152;-73
2021/05/07 01:15:27;;;;;;;5.80;2.20;;;9.20;99.90;;;;;;1896948;74;21097;-71
2021/05/07 01:17:57;;;;;;;7.65;2.50;;;9.30;99.90;;;;;;1904848;74;21133;-74
2021/05/07 01:20:29;;;;;;;8.30;3.02;;;9.30;99.90;;;;;;1898766;74;21614;-74
2021/05/07 01:23:03;;;;;;;7.92;2.62;;;9.20;99.90;;;;;;1901717;74;21121;-73
2021/05/07 01:25:36;;;;;;;8.48;2.47;;;9.30;99.90;;;;;;1896086;75;21687;-73
2021/05/07 01:28:06;;;;;;;8.13;2.85;;;9.20;99.90;;;;;;1898802;75;21018;-74
2021/05/07 01:30:36;;;;;;;5.92;2.62;;;9.20;99.90;;;;;;1898762;75;21135;-74
2021/05/07 01:33:04;;;;;;;5.55;2.52;;;9.10;99.90;;;;;;1900596;74;21026;-74
2021/05/07 01:35:36;;;;;;;7.22;2.72;;;9.20;99.90;;;;;;1896875;75;21120;-73
2021/05/07 01:38:05;;;;;;;;;;;9.10;99.90;;;;;;1902373;74;21024;-73
2021/05/07 01:40:35;;;;;;;6.03;2.30;;;9.20;99.90;;;;;;1901495;74;20150;-73
2021/05/07 01:43:04;;;;;;;5.15;2.75;;;9.10;99.90;;;;;;1894218;74;21093;-74
2021/05/07 01:45:40;;;;;;;4.67;2.52;;;9.00;99.90;;;;;;1901305;74;21588;-74
2021/05/07 01:48:08;;;;;;;7.28;2.72;;;9.10;99.90;;;;;;1897262;74;21113;-73
2021/05/07 01:50:41;;;;;;;7.00;2.85;;;9.10;99.90;;;;;;1898222;74;21133;-73
2021/05/07 01:53:10;;;;;;;5.25;2.55;;;9.00;99.90;;;;;;1897357;75;21143;-74
2021/05/07 01:55:42;;;;;;;5.30;2.77;;;8.90;99.90;;;;;;1894297;75;21010;-74
2021/05/07 01:58:12;;;;;;;5.25;2.70;;;9.00;99.90;;;;;;1895236;75;21160;-74
2021/05/07 02:00:40;;;;;;;7.22;2.60;;;9.00;99.90;;;;;;1895044;75;22205;-72
2021/05/07 02:03:08;;;;;;;4.00;2.87;;;8.90;99.90;;;;;;1898258;74;21492;-75
2021/05/07 02:05:36;;;;;;;7.33;2.62;;;8.90;99.90;;;;;;1896965;75;21023;-74
2021/05/07 02:08:08;;;;;;;5.87;2.80;;;8.90;99.90;;;;;;1898562;74;21485;-74
2021/05/07 02:10:36;;;;;;;5.23;2.67;;;8.90;99.90;;;;;;1897245;75;21106;-75
2021/05/07 02:13:07;;;;;;;5.53;2.80;;;8.90;99.90;;;;;;1897770;74;21486;-74
2021/05/07 02:15:35;;;;;;;5.92;3.12;;;8.80;99.90;;;;;;1897328;74;21102;-72
2021/05/07 02:18:04;;;;;;;7.53;3.27;;;8.80;99.90;;;;;;1898796;74;21085;-74
2021/05/07 02:20:32;;;;;;;4.78;3.20;;;8.90;99.90;;;;;;1897569;74;21627;-75
2021/05/07 02:23:00;;;;;;;9.30;3.85;;;8.90;99.90;;;;;;1900346;75;21150;-75
2021/05/07 02:25:29;;;;;;;5.22;3.30;;;8.90;99.90;;;;;;1897288;75;21093;-74
2021/05/07 02:27:58;;;;;;;7.30;3.62;;;8.90;99.90;;;;;;1896861;75;21220;-74
2021/05/07 02:30:27;;;;;;;7.53;3.83;;;9.00;99.90;;;;;;1899774;75;21615;-73
2021/05/07 02:32:55;;;;;;;6.45;4.12;;;9.00;99.90;;;;;;1898590;74;21580;-72
2021/05/07 02:35:24;;;;;;;7.78;4.47;;;8.90;99.90;;;;;;1897838;75;21159;-73
2021/05/07 02:37:52;;;;;;;9.10;4.10;;;8.90;99.90;;;;;;1898874;74;21606;-74
2021/05/07 02:40:19;;;;;;;8.65;4.28;;;8.90;99.90;;;;;;1897263;75;21149;-74
2021/05/07 02:42:47;;;;;;;9.38;4.65;;;8.90;99.90;;;;;;1899489;74;21082;-73
2021/05/07 02:45:15;;;;;;;7.30;4.28;;;8.80;99.90;;;;;;1897288;74;21644;-74
2021/05/07 02:47:42;;;;;;;8.63;4.45;;;8.80;99.90;;;;;;1896009;74;21097;-73
2021/05/07 02:50:11;;;;;;;10.25;4.75;;;8.80;99.90;;;;;;1899544;74;21106;-74
2021/05/07 02:52:40;;;;;;;10.85;4.97;;;8.80;99.90;;;;;;1896523;75;21143;-72
2021/05/07 02:55:10;;;;;;;10.55;6.17;;;8.90;99.90;;;;;;1896842;75;21776;-72
2021/05/07 02:57:38;;;;;;;9.80;4.78;;;8.80;99.90;;;;;;1897077;75;21097;-74
2021/05/07 03:00:07;;;;;;;7.90;5.10;;;8.60;99.90;;;;;;1897752;75;21739;-74
2021/05/07 03:02:35;;;;;;;9.65;5.15;;;8.70;99.90;;;;;;1897460;74;21046;-74
2021/05/07 03:05:04;;;;;;;8.18;4.42;;;8.70;99.90;;;;;;1899273;75;21034;-73
2021/05/07 03:07:31;;;;;;;9.73;4.83;;;8.70;99.90;;;;;;1895586;74;21545;-73
2021/05/07 03:09:59;;;;;;;9.38;5.00;;;8.70;99.90;;;;;;1896670;75;21082;-74
2021/05/07 03:12:26;;;;;;;7.17;4.50;;;8.70;99.90;;;;;;1902437;74;21058;-74
2021/05/07 03:14:54;;;;;;;10.38;5.28;;;8.70;99.90;;;;;;1897872;74;21104;-74
2021/05/07 03:17:21;;;;;;;6.47;4.35;;;8.70;99.90;;;;;;1897985;74;21034;-73
2021/05/07 03:19:49;;;;;;;8.85;4.75;;;8.70;99.90;;;;;;1897566;75;21015;-71
2021/05/07 03:22:16;;;;;;;6.10;3.45;;;8.70;99.90;;;;;;1898052;75;21034;-74
2021/05/07 03:24:44;;;;;;;5.60;3.40;;;8.60;99.90;;;;;;1900090;75;21030;-74
2021/05/07 03:27:11;;;;;;;6.37;3.33;;;8.60;99.90;;;;;;1900468;75;20988;-73
2021/05/07 03:29:39;;;;;;;3.85;2.62;;;8.60;99.90;;;;;;1899216;75;21014;-74
2021/05/07 03:32:06;;;;;;;4.95;3.00;;;8.60;99.90;;;;;;1899446;74;21074;-74
2021/05/07 03:34:34;;;;;;;6.25;3.50;;;8.60;99.90;;;;;;1896208;75;21092;-73
2021/05/07 03:37:02;;;;;;;4.83;2.80;;;8.70;99.90;;;;;;1898996;74;21907;-73
2021/05/07 03:39:29;;;;;;;3.83;2.60;;;8.60;99.90;;;;;;1895424;74;21054;-74
2021/05/07 03:41:57;;;;;;;5.05;2.83;;;8.60;99.90;;;;;;1896966;74;21571;-73
2021/05/07 03:44:24;;;;;;;5.85;2.70;;;8.60;99.90;;;;;;1897550;75;21159;-74
2021/05/07 03:46:52;;;;;;;5.08;2.87;;;8.60;99.90;;;;;;1897064;74;21105;-72
2021/05/07 03:49:19;;;;;;;6.65;3.00;;;8.50;99.90;;;;;;1897479;75;21094;-73
2021/05/07 03:51:46;;;;;;;6.67;3.10;;;8.50;99.90;;;;;;1897952;74;21129;-75
2021/05/07 03:54:14;;;;;;;5.85;2.80;;;8.50;99.90;;;;;;1897391;75;21074;-75
2021/05/07 03:56:41;;;;;;;4.90;3.17;;;8.50;99.90;;;;;;1891721;75;21081;-73
2021/05/07 03:59:09;;;;;;;5.62;3.62;;;8.60;99.90;;;;;;1897329;75;21456;-74
2021/05/07 04:01:36;;;;;;;4.85;3.33;;;8.60;99.90;;;;;;1895108;75;21125;-74
2021/05/07 04:04:07;;;;;;;7.55;3.87;;;8.60;99.90;;;;;;1894558;74;21101;-73
2021/05/07 04:06:33;;;;;;;4.37;3.42;;;8.50;99.90;;;;;;1892739;75;21156;-74
2021/05/07 04:09:07;;;;;;;5.35;3.98;;;8.50;99.90;;;;;;1898276;74;21137;-74
2021/05/07 04:11:38;;;;;;;5.87;4.30;;;8.50;99.90;;;;;;1895757;74;21251;-73
2021/05/07 04:14:02;;;;;;;6.85;4.30;;;8.60;99.90;;;;;;1898006;74;21158;-73
2021/05/07 04:16:29;;;;;;;4.80;4.22;;;8.60;99.90;;;;;;1897446;74;22169;-74
2021/05/07 04:18:57;;;;;;;6.15;4.08;;;8.50;99.90;;;;;;1899092;74;21417;-74
2021/05/07 04:21:25;;;;;;;6.25;4.17;;;8.50;99.90;;;;;;1896008;74;21140;-73
2021/05/07 04:23:52;;;;;;;5.97;4.58;;;8.40;99.90;;;;;;1898184;75;22169;-73
2021/05/07 04:26:20;;;;;;;6.53;4.28;;;8.40;99.90;;;;;;1898626;75;21132;-74
2021/05/07 04:28:47;;;;;;;7.55;4.72;;;8.30;99.90;;;;;;1898584;75;21077;-74
2021/05/07 04:31:15;;;;;;;5.67;4.55;;;8.30;99.90;;;;;;1901167;74;21129;-74
2021/05/07 04:33:42;;;;;;;6.20;4.37;;;8.40;99.90;;;;;;1899298;74;22197;-73
2021/05/07 04:36:10;;;;;;;6.92;4.30;;;8.40;99.90;;;;;;1895134;75;21112;-72
2021/05/07 04:38:37;;;;;;;8.00;4.70;;;8.40;99.90;;;;;;1810649;78;21101;-73
2021/05/07 04:41:05;;;;;;;5.35;4.37;;;8.40;99.90;;;;;;1898006;75;21512;-73
2021/05/07 04:43:32;;;;;;;7.17;4.10;;;8.50;99.90;;;;;;1898183;74;21071;-72
2021/05/07 04:46:00;;;;;;;5.42;4.15;;;8.50;99.90;;;;;;1900080;74;21602;-74
2021/05/07 04:48:29;;;;;;;6.95;4.20;;;8.40;99.90;;;;;;1903960;74;21153;-73
2021/05/07 04:50:56;;;;;;;6.20;4.05;;;8.40;99.90;;;;;;1903725;74;21552;-74
2021/05/07 04:53:24;;;;;;;7.20;4.20;;;8.40;99.90;;;;;;1902714;74;21129;-74
2021/05/07 04:55:51;;;;;;;6.67;4.22;;;8.30;99.90;;;;;;1902033;74;21129;-74
2021/05/07 04:58:19;;;;;;;5.35;4.03;;;8.30;99.90;;;;;;1904313;74;21085;-74
2021/05/07 05:00:46;;;;;;;7.62;4.47;;;8.30;99.90;;;;;;1902378;74;21632;-74
2021/05/07 05:03:14;;;;;;;8.75;4.20;;;8.30;99.90;;;;;;1900191;74;21081;-73
2021/05/07 05:05:41;;;;;;;6.92;4.40;;;8.30;99.90;;;;;;1900432;74;21099;-76
2021/05/07 05:08:09;;;;;;;5.47;3.80;;;8.30;99.90;;;;;;1898438;74;21067;-74
2021/05/07 05:10:36;;;;;;;6.97;4.05;;;8.30;99.90;;;;;;1897581;74;22338;-74
2021/05/07 05:13:04;;;;;;;7.62;4.35;;;8.30;99.90;;;;;;1901416;74;21078;-75
2021/05/07 05:15:31;;;;;;;6.33;3.95;;;8.40;99.90;;;;;;1899599;74;21097;-75
2021/05/07 05:17:59;;;;;;;7.08;4.35;;;8.40;99.90;;;;;;1899349;74;21110;-74
2021/05/07 05:20:26;;;;;;;6.92;4.15;;;8.40;99.90;;;;;;1898011;74;21855;-73
2021/05/07 05:22:54;;;;;;;4.67;3.60;;;8.40;99.90;;;;;;1905691;74;21191;-74
2021/05/07 05:25:21;;;;;;;5.30;4.08;;;8.40;99.90;;;;;;1897894;74;21109;-73
2021/05/07 05:27:49;;;;;;;5.20;4.03;;;8.40;99.90;;;;;;1897719;74;21026;-74
2021/05/07 05:30:17;;;;;;;7.95;4.78;;;8.40;99.90;;;;;;1900005;75;21101;-72
2021/05/07 05:32:44;;;;;;;8.85;4.10;;;8.60;99.90;;;;;;1901036;74;21089;-74
2021/05/07 05:35:12;;;;;;;10.20;4.75;;;8.50;99.90;;;;;;1898975;74;21187;-73
2021/05/07 05:37:39;;;;;;;7.28;4.25;;;8.50;99.90;;;;;;1901343;74;21170;-72
2021/05/07 05:40:08;;;;;;;6.75;4.28;;;8.50;99.90;;;;;;1901213;74;21545;-73
2021/05/07 05:42:35;;;;;;;4.67;3.50;;;8.50;99.90;;;;;;1899374;74;21354;-72
2021/05/07 05:45:03;;;;;;;5.25;3.72;;;8.50;99.90;;;;;;1896450;74;21207;-72
2021/05/07 05:47:30;;;;;;;5.83;3.75;;;8.40;99.90;;;;;;1900798;74;21208;-73
2021/05/07 05:49:58;;;;;;;5.22;3.55;;;8.40;99.90;;;;;;1896790;74;21125;-73
2021/05/07 05:52:26;;;;;;;5.35;3.77;;;8.40;99.90;;;;;;1900007;74;21086;-72
2021/05/07 05:54:53;;;;;;;5.05;2.87;;;8.40;99.90;;;;;;1896419;75;21089;-72
2021/05/07 05:57:21;;;;;;;4.05;2.60;;;8.40;99.90;;;;;;1899053;74;21551;-74
2021/05/07 05:59:52;;;;;;;6.25;3.75;;;8.40;99.90;;;;;;1901786;74;21588;-72
2021/05/07 06:02:19;;;;;;;5.08;2.55;;;8.50;99.90;;;;;;1902695;74;21230;-73
2021/05/07 06:04:47;;;;;;;3.45;2.10;;;8.40;99.90;;;;;;1900702;74;21168;-73
2021/05/07 06:07:14;;;;;;;5.53;2.33;;;8.50;99.90;;;;;;1896232;74;21238;-72
2021/05/07 06:09:42;;;;;;;5.47;2.55;;;8.40;99.90;;;;;;1904032;74;21097;-74
2021/05/07 06:12:10;;;;;;;5.65;2.47;;;8.40;99.90;;;;;;1903221;74;21380;-76
2021/05/07 06:14:37;;;;;;;2.98;2.20;;;8.40;99.90;;;;;;1897769;74;21685;-74
2021/05/07 06:17:05;;;;;;;3.33;2.20;;;8.40;99.90;;;;;;1902089;74;21136;-73
2021/05/07 06:19:32;;;;;;;5.15;2.40;;;8.40;99.90;;;;;;1903237;74;21195;-74
2021/05/07 06:22:00;;;;;;;4.08;2.30;;;8.40;99.90;;;;;;1897745;74;21078;-75
2021/05/07 06:24:27;;;;;;;3.80;1.95;;;8.40;99.90;;;;;;1900330;74;21559;-73
2021/05/07 06:26:55;;;;;;;4.30;2.05;;;8.40;99.90;;;;;;1896442;75;21172;-73
2021/05/07 06:29:22;;;;;;;4.55;1.90;;;8.40;99.90;;;;;;1898856;74;21097;-74
2021/05/07 06:31:50;;;;;;;6.33;2.52;;;8.40;99.90;;;;;;1899098;74;21303;-75
2021/05/07 06:34:17;;;;;;;3.27;2.30;;;8.40;99.90;;;;;;1895371;75;21116;-75
2021/05/07 06:36:45;;;;;;;4.97;2.30;;;8.50;99.90;;;;;;1899117;74;21666;-75
2021/05/07 06:39:12;;;;;;;4.10;2.08;;;8.50;99.90;;;;;;1900219;74;21168;-75
2021/05/07 06:41:40;;;;;;;5.47;2.77;;;8.50;99.90;;;;;;1900839;74;21181;-75
2021/05/07 06:44:08;;;;;;;4.95;2.50;;;8.50;99.90;;;;;;1897383;74;21091;-75
2021/05/07 06:46:35;;;;;;;4.70;2.58;;;8.60;99.90;;;;;;1900559;74;21058;-75
2021/05/07 06:49:03;;;;;;;5.22;2.60;;;8.60;99.90;;;;;;1902936;74;21144;-75
2021/05/07 06:51:31;;;;;;;5.37;2.90;;;8.60;99.90;;;;;;1900465;74;21216;-71
2021/05/07 06:53:58;;;;;;;5.45;3.58;;;8.70;99.90;;;;;;1901784;74;21104;-71
2021/05/07 06:56:25;;;;;;;4.12;2.95;;;8.60;99.90;;;;;;1901283;74;21007;-73
2021/05/07 06:58:53;;;;;;;8.58;3.50;;;8.60;99.90;;;;;;1897777;74;21187;-71
2021/05/07 07:01:20;;;;;;;5.80;3.22;;;8.60;99.90;;;;;;1898998;74;21435;-71
2021/05/07 07:03:48;;;;;;;5.65;3.33;;;8.60;99.90;;;;;;1899258;75;21116;-71
2021/05/07 07:06:15;;;;;;;6.30;3.47;;;8.60;99.90;;;;;;1900483;74;21105;-72
2021/05/07 07:08:43;;;;;;;7.05;3.40;;;8.60;99.90;;;;;;1896732;74;21591;-71
2021/05/07 07:11:10;;;;;;;5.90;3.20;;;8.60;99.90;;;;;;1897251;74;21039;-71
2021/05/07 07:13:38;;;;;;;6.35;3.65;;;8.70;99.90;;;;;;1904599;74;21201;-71
2021/05/07 07:16:06;;;;;;;7.72;3.72;;;8.80;99.90;;;;;;1903338;74;21097;-71
2021/05/07 07:18:33;;;;;;;6.12;3.42;;;8.80;99.90;;;;;;1894590;74;21114;-71
2021/05/07 07:21:01;;;;;;;7.30;3.55;;;8.80;99.90;;;;;;1900541;74;21151;-71
2021/05/07 07:23:28;;;;;;;12.68;3.70;;;8.80;99.90;;;;;;1901917;74;21082;-71
2021/05/07 07:25:56;;;;;;;6.45;3.37;;;8.90;99.90;;;;;;1898446;74;21453;-74
2021/05/07 07:28:23;;;;;;;7.72;3.42;;;8.90;99.90;;;;;;1900057;74;21674;-75
2021/05/07 07:30:51;;;;;;;6.70;2.92;;;8.80;99.90;;;;;;1897819;74;21199;-74
2021/05/07 07:33:18;;;;;;;3.95;2.65;;;8.90;99.90;;;;;;1896744;74;21082;-74
2021/05/07 07:35:46;;;;;;;7.55;2.90;;;8.80;99.90;;;;;;1900088;74;21143;-74
2021/05/07 07:38:13;;;;;;;5.97;2.40;;;8.80;99.90;;;;;;1894917;74;22189;-74
2021/05/07 07:40:40;;;;;;;7.58;2.50;;;8.90;99.90;;;;;;1900974;74;21149;-75
2021/05/07 07:43:08;;;;;;;5.00;2.72;;;8.90;99.90;;;;;;1899634;74;21159;-75
2021/05/07 07:45:36;;;;;;;4.45;2.50;;;9.00;99.90;;;;;;1903256;74;21134;-74
2021/05/07 07:48:03;;;;;;;5.92;2.37;;;9.00;99.90;;;;;;1906331;74;21101;-74
2021/05/07 07:50:31;;;;;;;5.37;2.45;;;9.10;99.90;;;;;;1896513;74;21187;-74
2021/05/07 07:52:58;;;;;;;4.80;2.62;;;9.10;99.90;;;;;;1898248;74;21388;-72
2021/05/07 07:55:26;;;;;;;4.65;2.30;;;9.30;99.90;;;;;;1904959;74;21089;-73
2021/05/07 07:57:53;;;;;;;7.15;2.45;;;9.40;99.90;;;;;;1901293;74;21607;-73
2021/05/07 08:00:21;;;;;;;4.30;2.25;;;9.30;99.90;;;;;;1905290;74;21250;-74
2021/05/07 08:02:48;;;;;;;5.62;2.55;;;9.30;99.90;;;;;;1900106;74;21179;-75
2021/05/07 08:05:17;;;;;;;6.03;2.70;;;9.40;99.90;;;;;;1899838;74;21404;-74
2021/05/07 08:07:48;;;;;;;6.87;2.72;;;9.40;99.90;;;;;;1910783;74;21086;-74
2021/05/07 08:10:18;;;;;;;5.67;1.95;;;9.50;99.90;;;;;;1900889;74;21067;-74
2021/05/07 08:12:45;;;;;;;4.97;1.77;;;9.60;99.90;;;;;;1908732;74;21140;-74
2021/05/07 08:15:13;;;;;;;5.08;2.42;;;9.70;99.90;;;;;;1896528;74;21010;-73
2021/05/07 08:17:41;;;;;;;5.17;1.80;;;9.80;99.90;;;;;;1899445;74;21186;-74
2021/05/07 08:20:09;;;;;;;4.92;2.20;;;9.90;99.90;;;;;;1899951;74;21086;-74
2021/05/07 08:22:37;;;;;;;6.35;2.45;;;10.00;99.90;;;;;;1901323;74;21100;-74
2021/05/07 08:25:04;;;;;;;5.28;2.70;;;10.10;99.90;;;;;;1902146;74;21118;-74
2021/05/07 08:27:32;;;;;;;5.50;2.40;;;10.30;99.90;;;;;;1902162;74;21177;-74
2021/05/07 08:29:59;;;;;;;4.75;1.85;;;10.50;99.90;;;;;;1901179;74;21097;-74
2021/05/07 08:32:27;;;;;;;6.80;2.10;;;10.50;99.90;;;;;;1902911;74;21536;-74
2021/05/07 08:34:54;;;;;;;3.95;2.30;;;10.50;99.90;;;;;;1902474;74;21073;-74
2021/05/07 08:37:22;;;;;;;3.30;1.80;;;10.50;99.90;;;;;;1904995;74;21043;-73
2021/05/07 08:39:49;;;;;;;3.45;1.87;;;10.50;99.90;;;;;;1901083;74;20999;-74
2021/05/07 08:42:17;;;;;;;3.92;1.62;;;10.50;99.90;;;;;;1902457;74;21188;-74
2021/05/07 08:44:45;;;;;;;3.45;1.55;;;10.50;99.90;;;;;;1904395;74;21171;-74
2021/05/07 08:47:14;;;;;;;2.47;1.47;;;10.70;99.90;;;;;;1902604;74;21677;-74
2021/05/07 08:49:42;;;;;;;4.20;2.10;;;10.80;99.90;;;;;;1901564;74;22284;-74
2021/05/07 08:52:09;;;;;;;3.05;1.92;;;10.70;99.90;;;;;;1908054;73;22210;-74
2021/05/07 08:54:37;;;;;;;6.08;2.25;;;10.60;99.90;;;;;;1906972;74;21216;-74
2021/05/07 08:57:04;;;;;;;3.62;1.80;;;10.70;99.90;;;;;;1905559;74;21234;-74
2021/05/07 08:59:33;;;;;;;3.27;1.40;;;10.90;99.90;;;;;;1900068;74;21109;-74
2021/05/07 09:02:01;;;;;;;7.47;1.65;;;10.80;99.90;;;;;;1907385;74;21782;-74
2021/05/07 09:04:28;;;;;;;3.40;1.80;;;10.70;99.90;;;;;;1907112;74;21157;-73
2021/05/07 09:06:56;;;;;;;5.75;2.22;;;10.60;99.90;;;;;;1901680;74;21519;-74
2021/05/07 09:09:27;;;;;;;4.65;2.00;;;10.50;99.90;;;;;;1903377;74;21117;-74
2021/05/07 09:11:55;;;;;;;7.05;2.17;;;10.50;99.90;;;;;;1906973;74;21630;-74
2021/05/07 09:14:24;;;;;;;4.58;2.00;;;10.70;99.90;;;;;;1903384;74;21074;-73
2021/05/07 09:17:02;;;;;;;5.72;2.08;;;10.90;99.90;;;;;;1904638;74;22660;-73
2021/05/07 09:19:37;;;;;;;4.83;1.92;;;11.00;99.90;;;;;;1902370;74;21470;-73
2021/05/07 09:22:05;;;;;;;5.45;1.60;;;11.20;99.90;;;;;;1903965;74;21169;-74
2021/05/07 09:24:37;;;;;;;5.22;1.70;;;11.40;99.90;;;;;;1906718;74;21082;-74
2021/05/07 09:27:06;;;;;;;5.35;1.85;;;11.30;99.90;;;;;;1901627;74;21096;-74
2021/05/07 09:29:35;;;;;;;8.20;2.02;;;11.30;99.90;;;;;;1905503;74;21566;-73
2021/05/07 09:32:04;;;;;;;5.28;1.75;;;11.30;99.90;;;;;;1901755;74;21087;-74
2021/05/07 09:34:38;;;;;;;2.50;1.50;;;11.50;99.90;;;;;;1902039;74;21690;-73
2021/05/07 09:37:18;;;;;;;6.45;1.70;;;11.60;99.90;;;;;;1898047;74;21169;-73
2021/05/07 09:39:46;;;;;;;2.58;1.60;;;11.60;99.90;;;;;;1900065;74;21223;-73
2021/05/07 09:42:32;;;;;;;5.58;1.55;;;11.60;99.90;;;;;;1898452;74;21110;-74
2021/05/07 09:44:53;;;;;;;4.75;1.67;;;11.90;99.90;;;;;;1899735;74;21062;-74
2021/05/07 09:47:20;;;;;;;5.70;1.40;;;11.90;99.90;;;;;;1898110;74;21540;-74
2021/05/07 09:49:48;;;;;;;3.10;1.40;;;11.90;99.30;;;;;;1898895;74;21106;-74
2021/05/07 09:52:15;;;;;;;2.45;1.30;;;11.90;99.50;;;;;;1902889;74;21128;-73
2021/05/07 09:54:51;;;;;;;4.58;1.62;;;11.70;98.30;;;;;;1898765;74;21121;-73
2021/05/07 09:57:20;;;;;;;4.53;1.40;;;11.60;99.10;;;;;;1907603;74;21109;-74
2021/05/07 09:59:49;;;;;;;5.20;1.17;;;11.50;98.90;;;;;;1904781;74;21441;-74
2021/05/07 10:02:17;;;;;;;5.67;1.30;;;11.30;99.90;;;;;;1901113;74;21073;-74
2021/05/07 10:04:45;;;;;;;3.75;1.10;;;11.30;99.90;;;;;;1903765;74;21151;-72
2021/05/07 10:07:13;;;;;;;2.60;1.10;;;11.20;99.90;;;;;;1904018;74;21171;-72
2021/05/07 10:09:40;;;;;;;2.90;0.80;;;11.00;99.90;;;;;;1901139;74;21175;-72
2021/05/07 10:12:09;;;;;;;4.50;1.20;;;11.00;99.90;;;;;;1904114;74;21123;-73
2021/05/07 10:14:45;;;;;;;2.37;1.25;;;11.00;99.90;;;;;;1901125;74;21066;-72
2021/05/07 10:17:14;;;;;;;5.08;1.20;;;11.10;99.90;;;;;;1897372;74;21178;-72
2021/05/07 10:19:43;;;;;;;1.92;1.10;;;11.30;99.90;;;;;;1895640;74;21579;-73
2021/05/07 10:22:11;;;;;;;5.05;1.10;;;11.40;99.90;;;;;;1900151;74;21078;-73
2021/05/07 10:24:40;;;;;;;1.98;0.98;;;11.40;99.90;;;;;;1901736;74;21026;-73
2021/05/07 10:27:18;;;;;;;3.70;1.12;;;11.30;99.90;;;;;;1901493;74;21516;-73
2021/05/07 10:29:57;;;;;;;3.90;1.07;;;11.30;99.90;;;;;;1909314;74;21018;-72
2021/05/07 10:32:32;;;;;;;1.12;0.90;;;11.00;99.90;;;;;;1908749;74;21019;-73
2021/05/07 10:35:00;;;;;;;4.45;1.00;;;10.80;99.90;;;;;;1898907;74;21094;-73
2021/05/07 10:37:42;;;;;;;2.00;0.78;;;10.50;99.90;;;;;;1904955;74;21226;-72
2021/05/07 10:40:12;;;;;;;1.62;0.75;;;10.30;99.90;;;;;;1904183;74;21208;-72
2021/05/07 10:42:39;;;;;;;1.70;1.00;;;10.20;99.90;;;;;;1901434;74;21142;-73
2021/05/07 10:45:08;;;;;;;1.65;0.80;;;10.10;99.90;;;;;;1904205;74;21168;-72
2021/05/07 10:47:39;;;;;;;2.77;1.10;;;10.20;99.90;;;;;;1906626;74;21086;-73
2021/05/07 10:50:15;;;;;;;2.22;1.12;;;10.30;99.90;;;;;;1898956;74;21166;-73
2021/05/07 10:52:43;;;;;;;1.75;1.00;;;10.40;99.90;;;;;;1900359;74;21113;-73
2021/05/07 10:55:12;;;;;;;1.62;0.90;;;10.50;99.90;;;;;;1902253;74;21199;-72
2021/05/07 10:57:39;;;;;;;2.45;1.00;;;10.90;99.90;;;;;;1907003;74;21137;-74
2021/05/07 11:00:12;;;;;;;3.12;1.30;;;11.00;99.90;;;;;;1903159;74;21183;-73
2021/05/07 11:02:55;;;;;;;5.25;1.20;;;11.40;99.90;;;;;;1903121;74;21230;-73
2021/05/07 11:05:47;;;;;;;3.98;1.60;;;11.90;99.90;;;;;;1902468;74;22231;-74
2021/05/07 11:08:15;;;;;;;4.72;1.10;;;12.70;99.90;;;;;;1903202;74;21039;-73
2021/05/07 11:10:44;;;;;;;2.17;1.17;;;13.30;99.90;;;;;;1906773;74;21206;-73
2021/05/07 11:13:12;;;;;;;4.70;1.25;;;14.20;99.90;;;;;;1905403;74;21133;-73
2021/05/07 11:15:39;;;;;;;6.28;1.72;;;14.70;99.90;;;;;;1899730;74;21268;-73
2021/05/07 11:18:11;;;;;;;5.92;2.00;;;15.10;97.10;;;;;;1901708;74;21331;-74
2021/05/07 11:20:41;;;;;;;6.42;1.50;;;14.90;96.00;;;;;;1902467;74;21219;-73
2021/05/07 11:23:10;;;;;;;4.58;1.02;;;15.50;95.40;;;;;;1900907;74;21152;-73
2021/05/07 11:25:39;;;;;;;2.47;1.17;;;15.70;95.80;;;;;;1894679;75;21151;-73
2021/05/07 11:28:14;;;;;;;4.78;1.12;;;16.20;93.50;;;;;;1901656;74;21145;-73
2021/05/07 11:30:50;;;;;;;4.17;0.95;;;16.40;92.70;;;;;;1903797;74;21557;-72
2021/05/07 11:33:19;;;;;;;3.67;1.00;;;16.00;91.90;;;;;;1900385;74;21161;-73
2021/05/07 11:35:46;;;;;;;3.72;1.10;;;15.30;92.30;;;;;;1896928;74;21113;-73
2021/05/07 11:38:16;;;;;;;1.32;0.70;;;14.40;93.20;;;;;;1899781;74;21051;-73
2021/05/07 11:40:43;;;;;;;3.15;0.90;;;13.70;93.40;;;;;;1900921;74;21107;-73
2021/05/07 11:43:13;;;;;;;2.55;0.90;;;13.40;93.30;;;;;;1901413;74;21571;-73
2021/05/07 11:45:42;;;;;;;4.42;1.30;;;13.00;93.40;;;;;;1899102;74;21041;-73
2021/05/07 11:48:10;;;;;;;2.87;0.90;;;12.80;94.90;;;;;;1905078;74;21520;-73
2021/05/07 11:50:40;;;;;;;2.75;1.00;;;12.30;95.00;;;;;;1905028;74;21054;-73
2021/05/07 11:53:21;;;;;;;2.52;0.85;;;12.10;95.60;;;;;;1901176;74;21093;-73
2021/05/07 11:55:48;;;;;;;3.42;1.00;;;11.70;96.00;;;;;;1900396;74;21132;-73
2021/05/07 11:58:15;;;;;;;4.00;1.40;;;11.60;96.00;;;;;;1903659;74;21015;-73
2021/05/07 12:00:44;;;;;;;6.60;1.80;;;11.50;97.30;;;;;;1899796;74;21082;-73
2021/05/07 12:03:15;;;;;;;4.33;1.57;;;11.50;97.20;;;;;;1899229;74;21610;-73
2021/05/07 12:05:45;;;;;;;4.22;1.52;;;11.50;97.40;;;;;;1902565;74;21050;-74
2021/05/07 12:08:13;;;;;;;4.37;1.47;;;11.70;97.70;;;;;;1897136;74;21064;-74
2021/05/07 12:10:42;;;;;;;3.45;1.60;;;11.80;97.20;;;;;;1898815;74;21117;-74
2021/05/07 12:13:09;;;;;;;3.47;1.50;;;12.00;97.60;;;;;;1894717;75;21560;-74
2021/05/07 12:15:45;;;;;;;4.45;1.52;;;12.20;98.00;;;;;;1899095;74;21058;-74
2021/05/07 12:18:20;;;;;;;4.87;2.02;;;12.50;97.90;;;;;;1898232;74;21105;-74
2021/05/07 12:20:50;;;;;;;5.00;1.80;;;12.90;98.00;;;;;;1896798;75;21109;-73
2021/05/07 12:23:18;;;;;;;3.87;1.32;;;13.10;95.60;;;;;;1900209;74;21030;-74
2021/05/07 12:25:47;;;;;;;6.58;1.55;;;13.80;95.90;;;;;;1896999;74;21070;-75
2021/05/07 12:28:19;;;;;;;3.80;1.52;;;14.60;94.40;;;;;;1900676;74;21086;-74
2021/05/07 12:30:47;;;;;;;5.92;1.40;;;15.10;92.70;;;;;;1902874;75;21195;-72
2021/05/07 12:33:20;;;;;;;3.72;1.80;;;15.00;91.10;;;;;;1905571;74;21089;-73
2021/05/07 12:35:49;;;;;;;4.33;1.62;;;14.60;92.00;;;;;;1900586;74;21046;-75
2021/05/07 12:38:35;;;;;;;4.47;1.60;;;14.20;93.30;;;;;;1901620;74;21159;-74
2021/05/07 12:41:10;;;;;;;10.13;1.82;;;13.70;93.50;;;;;;1898006;74;21152;-74
2021/05/07 12:43:40;;;;;;;5.58;1.55;;;13.50;93.40;;;;;;1897096;74;21632;-74
2021/05/07 12:46:08;;;;;;;2.50;1.15;;;13.30;94.40;;;;;;1904960;74;21149;-74
2021/05/07 12:48:36;;;;;;;4.83;1.22;;;13.20;93.80;;;;;;1905781;74;21057;-74
2021/05/07 12:51:06;;;;;;;2.02;0.93;;;13.20;93.10;;;;;;1901414;74;21105;-74
2021/05/07 12:53:36;;;;;;;4.37;1.17;;;13.80;92.30;;;;;;1899857;74;21052;-74
2021/05/07 12:56:04;;;;;;;1.65;0.80;;;13.90;90.30;;;;;;1901546;74;22132;-74
2021/05/07 12:58:31;;;;;;;1.70;0.80;;;13.70;85.80;;;;;;1901000;74;21545;-74
2021/05/07 13:00:59;;;;;;;1.80;0.93;;;13.70;86.10;;;;;;1901862;74;21676;-74